Time;durP1;ratioP1;P1;durP2;ratioP2;P2;SDS_P1;SDS_P2;PMS_P1;PMS_P2;Temp;Humidity;BMP_temperature;BMP_pressure;BME280_temperature;BME280_humidity;BME280_pressure;Samples;Min_cycle;Max_cycle;Signal;HPM_P1;HPM_P2
2021/04/25 00:02:12;;;;;;;5.97;3.97;;;16.40;80.70;;;;;;4996722;28;97209;-53
2021/04/25 00:04:48;;;;;;;4.75;3.30;;;16.40;80.70;;;;;;4993037;28;95884;-52
2021/04/25 00:07:17;;;;;;;5.05;3.65;;;16.40;80.70;;;;;;5017628;28;96328;-54
2021/04/25 00:09:49;;;;;;;6.70;3.75;;;16.40;80.70;;;;;;5001025;28;96044;-52
2021/04/25 00:12:19;;;;;;;6.32;3.70;;;16.40;80.70;;;;;;4973147;28;95787;-55
2021/04/25 00:14:50;;;;;;;6.38;3.75;;;16.40;80.60;;;;;;4992307;28;95734;-54
2021/04/25 00:17:22;;;;;;;3.88;3.47;;;16.40;80.60;;;;;;4997764;28;96413;-56
2021/04/25 00:19:54;;;;;;;6.47;4.10;;;16.40;80.60;;;;;;4990344;28;95374;-55
2021/04/25 00:22:24;;;;;;;;;;;16.40;80.60;;;;;;4990375;28;96060;-53
2021/04/25 00:24:54;;;;;;;5.00;3.55;;;16.50;80.70;;;;;;4984681;28;95724;-54
2021/04/25 00:27:25;;;;;;;5.00;3.83;;;16.40;80.70;;;;;;5005330;28;96026;-56
2021/04/25 00:29:56;;;;;;;5.72;3.17;;;16.40;80.60;;;;;;4992660;28;95773;-52
2021/04/25 00:32:28;;;;;;;3.55;3.22;;;16.50;80.70;;;;;;4992475;28;95825;-54
2021/04/25 00:34:58;;;;;;;4.15;2.90;;;16.50;80.70;;;;;;4999463;28;95552;-55
2021/04/25 00:37:27;;;;;;;5.35;3.90;;;16.40;80.70;;;;;;5003742;28;95962;-55
2021/04/25 00:39:56;;;;;;;5.22;3.78;;;16.40;80.70;;;;;;5000434;28;98020;-54
2021/04/25 00:42:26;;;;;;;4.25;2.97;;;16.50;80.80;;;;;;4990436;28;95774;-55
2021/04/25 00:44:56;;;;;;;3.65;2.92;;;16.50;80.70;;;;;;4995259;28;95651;-54
2021/04/25 00:47:26;;;;;;;3.42;3.13;;;16.50;80.90;;;;;;5016126;27;96175;-56
2021/04/25 00:49:57;;;;;;;4.47;3.05;;;16.40;80.80;;;;;;5002042;28;95926;-54
2021/04/25 00:52:28;;;;;;;5.20;3.43;;;16.50;80.80;;;;;;5001611;28;96165;-51
2021/04/25 00:54:58;;;;;;;10.23;4.45;;;16.40;80.80;;;;;;4994197;28;95746;-55
2021/04/25 00:57:29;;;;;;;2.97;2.63;;;16.50;81.00;;;;;;5001350;28;95903;-51
2021/04/25 00:59:59;;;;;;;4.57;3.03;;;16.50;80.90;;;;;;4991528;28;95692;-52
2021/04/25 01:02:30;;;;;;;5.85;3.45;;;16.40;80.80;;;;;;4986453;28;101461;-52
2021/04/25 01:05:03;;;;;;;;;;;16.50;80.90;;;;;;4991977;28;96101;-50
2021/04/25 01:07:36;;;;;;;4.72;3.30;;;16.50;80.70;;;;;;4990575;28;95807;-53
2021/04/25 01:10:09;;;;;;;3.65;2.83;;;16.50;80.60;;;;;;4987850;28;95939;-54
2021/04/25 01:12:42;;;;;;;3.65;2.78;;;16.50;80.60;;;;;;4988508;28;95880;-53
2021/04/25 01:15:15;;;;;;;4.15;2.65;;;16.60;80.60;;;;;;4969679;28;95846;-55
2021/04/25 01:17:48;;;;;;;3.17;2.50;;;16.60;80.70;;;;;;4988242;28;102463;-54
2021/04/25 01:20:20;;;;;;;2.85;2.45;;;16.60;80.70;;;;;;4989538;28;96039;-52
2021/04/25 01:22:51;;;;;;;4.35;3.47;;;16.60;80.70;;;;;;4991175;28;96070;-51
2021/04/25 01:25:23;;;;;;;3.00;2.70;;;16.60;80.70;;;;;;4993709;28;95775;-51
2021/04/25 01:27:55;;;;;;;3.78;2.75;;;16.60;80.60;;;;;;4992873;28;95909;-51
2021/04/25 01:30:29;;;;;;;;;;;16.60;80.70;;;;;;4987700;28;95742;-54
2021/04/25 01:32:59;;;;;;;4.00;2.28;;;16.60;80.70;;;;;;4996737;28;95707;-50
2021/04/25 01:35:28;;;;;;;3.15;2.70;;;16.70;80.80;;;;;;4999494;28;95466;-54
2021/04/25 01:37:58;;;;;;;3.45;2.88;;;16.60;80.70;;;;;;4997417;28;99052;-54
2021/04/25 01:40:33;;;;;;;3.28;2.75;;;16.80;81.10;;;;;;5005438;28;95711;-54
2021/04/25 01:43:04;;;;;;;2.30;1.95;;;16.80;81.10;;;;;;4968641;28;96029;-54
2021/04/25 01:45:34;;;;;;;2.05;1.85;;;16.70;81.10;;;;;;4986938;28;99062;-54
2021/04/25 01:48:08;;;;;;;2.28;1.92;;;16.80;81.10;;;;;;4976913;28;96505;-54
2021/04/25 01:50:38;;;;;;;3.38;2.47;;;16.80;81.20;;;;;;4977084;28;95868;-54
2021/04/25 01:53:10;;;;;;;3.08;2.28;;;16.70;81.00;;;;;;4987336;28;95898;-55
2021/04/25 01:55:42;;;;;;;2.88;2.17;;;16.80;81.10;;;;;;5003655;28;96124;-55
2021/04/25 01:58:13;;;;;;;;;;;16.70;81.10;;;;;;5000286;28;98240;-51
2021/04/25 02:00:45;;;;;;;2.35;2.10;;;16.80;81.10;;;;;;4988312;28;97126;-55
2021/04/25 02:03:17;;;;;;;3.20;2.10;;;16.70;81.00;;;;;;4973688;28;96062;-55
2021/04/25 02:05:48;;;;;;;3.22;2.05;;;16.80;81.10;;;;;;4992444;28;95914;-54
2021/04/25 02:08:19;;;;;;;3.05;2.45;;;16.70;81.10;;;;;;5001373;28;96018;-54
2021/04/25 02:10:51;;;;;;;2.90;2.58;;;16.80;81.10;;;;;;4985015;28;98051;-55
2021/04/25 02:13:23;;;;;;;2.78;1.98;;;16.80;81.10;;;;;;4997509;28;98191;-52
2021/04/25 02:15:54;;;;;;;5.80;2.63;;;16.80;81.00;;;;;;5010681;28;98740;-55
2021/04/25 02:18:26;;;;;;;4.47;2.40;;;16.80;81.00;;;;;;4991623;28;95965;-55
2021/04/25 02:20:57;;;;;;;2.45;1.98;;;16.80;80.90;;;;;;5003170;28;95648;-54
2021/04/25 02:23:28;;;;;;;;;;;16.80;80.80;;;;;;4994581;28;95771;-55
2021/04/25 02:25:59;;;;;;;2.78;1.98;;;16.80;80.80;;;;;;4989774;28;95947;-55
2021/04/25 02:28:29;;;;;;;2.30;2.10;;;16.80;80.70;;;;;;4969615;28;98385;-53
2021/04/25 02:31:00;;;;;;;2.15;1.75;;;16.90;80.70;;;;;;4995118;27;96170;-52
2021/04/25 02:33:29;;;;;;;2.92;2.00;;;16.90;80.50;;;;;;4986873;28;95887;-55
2021/04/25 02:35:59;;;;;;;3.25;2.08;;;16.90;80.50;;;;;;4999013;28;95703;-53
2021/04/25 02:38:29;;;;;;;2.60;2.20;;;16.90;80.50;;;;;;5000704;28;95877;-56
2021/04/25 02:41:00;;;;;;;1.77;1.58;;;16.90;80.50;;;;;;4989521;28;95799;-55
2021/04/25 02:43:30;;;;;;;;;;;17.00;80.40;;;;;;5002025;28;95706;-54
2021/04/25 02:46:01;;;;;;;3.00;1.98;;;17.00;80.30;;;;;;4978769;28;96091;-54
2021/04/25 02:48:32;;;;;;;3.42;1.90;;;17.00;80.40;;;;;;4995637;28;96989;-54
2021/04/25 02:51:02;;;;;;;2.20;1.92;;;17.00;80.30;;;;;;4952771;28;96107;-56
2021/04/25 02:53:33;;;;;;;2.80;2.08;;;17.00;80.30;;;;;;4986528;28;97178;-53
2021/04/25 02:56:04;;;;;;;2.00;1.70;;;17.00;80.20;;;;;;4993063;28;96032;-52
2021/04/25 02:58:34;;;;;;;2.45;1.85;;;17.00;80.10;;;;;;4995073;28;95818;-53
2021/04/25 03:01:05;;;;;;;1.80;1.60;;;17.00;80.10;;;;;;4993785;28;95469;-56
2021/04/25 03:03:36;;;;;;;;;;;17.00;80.00;;;;;;4997130;28;95992;-56
2021/04/25 03:06:06;;;;;;;1.67;1.38;;;17.10;80.60;;;;;;4988595;28;95874;-54
2021/04/25 03:08:36;;;;;;;1.40;1.30;;;17.10;80.10;;;;;;4997549;28;95880;-54
2021/04/25 03:11:07;;;;;;;2.97;1.70;;;17.10;80.00;;;;;;4996862;28;95837;-54
2021/04/25 03:13:40;;;;;;;1.42;1.17;;;17.10;79.90;;;;;;5002869;28;95758;-54
2021/04/25 03:16:10;;;;;;;1.35;1.25;;;17.10;79.70;;;;;;4994808;27;95480;-56
2021/04/25 03:18:41;;;;;;;1.67;1.50;;;17.10;79.60;;;;;;5005032;28;95933;-55
2021/04/25 03:21:12;;;;;;;2.83;1.55;;;17.10;79.50;;;;;;5013406;27;95864;-53
2021/04/25 03:23:44;;;;;;;1.80;1.63;;;17.10;79.50;;;;;;4988151;28;95711;-53
2021/04/25 03:26:16;;;;;;;1.35;1.25;;;17.10;79.40;;;;;;4989155;28;95855;-54
2021/04/25 03:28:46;;;;;;;2.10;1.35;;;17.10;79.70;;;;;;4991522;28;96070;-52
2021/04/25 03:31:18;;;;;;;2.45;1.67;;;17.10;79.40;;;;;;4991278;28;95983;-54
2021/04/25 03:33:48;;;;;;;7.25;2.20;;;17.10;79.30;;;;;;4979027;28;96061;-55
2021/04/25 03:36:18;;;;;;;1.27;1.17;;;17.10;79.20;;;;;;4990378;28;96126;-55
2021/04/25 03:38:48;;;;;;;1.80;1.25;;;17.10;79.00;;;;;;4990903;28;95979;-58
2021/04/25 03:41:17;;;;;;;1.55;1.40;;;17.10;78.90;;;;;;4990306;28;96094;-51
2021/04/25 03:43:47;;;;;;;1.30;1.20;;;17.10;79.00;;;;;;4998417;28;95493;-54
2021/04/25 03:46:17;;;;;;;0.85;0.85;;;17.10;78.90;;;;;;4995917;28;95579;-56
2021/04/25 03:48:49;;;;;;;2.30;1.27;;;17.10;79.00;;;;;;5007184;28;95954;-50
2021/04/25 03:51:19;;;;;;;;;;;17.20;78.90;;;;;;4991066;28;95785;-52
2021/04/25 03:53:50;;;;;;;1.35;1.10;;;17.20;79.00;;;;;;4974906;28;96206;-50
2021/04/25 03:56:21;;;;;;;1.20;1.10;;;17.20;79.10;;;;;;5010164;28;95911;-53
2021/04/25 03:58:50;;;;;;;1.55;1.35;;;17.20;79.00;;;;;;4992606;28;95898;-50
2021/04/25 04:01:21;;;;;;;2.17;1.10;;;17.20;79.20;;;;;;4988369;28;95851;-52
2021/04/25 04:03:52;;;;;;;1.73;1.00;;;17.20;79.00;;;;;;4984318;28;95939;-54
2021/04/25 04:06:23;;;;;;;2.60;1.20;;;17.20;78.60;;;;;;4996122;28;95431;-54
2021/04/25 04:08:54;;;;;;;2.08;1.30;;;17.20;78.70;;;;;;4989718;28;95881;-52
2021/04/25 04:11:24;;;;;;;1.77;1.60;;;17.20;78.70;;;;;;4990701;28;95351;-51
2021/04/25 04:13:55;;;;;;;1.53;1.00;;;17.30;78.70;;;;;;4988503;28;95600;-54
2021/04/25 04:16:28;;;;;;;1.70;1.40;;;17.30;78.60;;;;;;4986811;28;95769;-51
2021/04/25 04:18:59;;;;;;;2.00;1.30;;;17.30;78.50;;;;;;4988242;28;96137;-53
2021/04/25 04:21:30;;;;;;;1.63;1.10;;;17.30;78.60;;;;;;4990789;28;95792;-52
2021/04/25 04:24:01;;;;;;;1.92;1.00;;;17.30;78.50;;;;;;4992248;28;97792;-54
2021/04/25 04:26:32;;;;;;;0.93;0.83;;;17.40;78.70;;;;;;4996490;28;95162;-50
2021/04/25 04:29:03;;;;;;;3.60;1.45;;;17.40;78.70;;;;;;4988542;28;96124;-49
2021/04/25 04:31:32;;;;;;;0.88;0.82;;;17.40;79.00;;;;;;4987805;28;97505;-53
2021/04/25 04:34:02;;;;;;;1.20;1.00;;;17.40;78.30;;;;;;4999174;28;99978;-53
2021/04/25 04:36:32;;;;;;;1.20;0.98;;;17.40;78.30;;;;;;4981132;28;95653;-50
2021/04/25 04:39:04;;;;;;;0.70;0.70;;;17.40;78.40;;;;;;4991271;28;99942;-50
2021/04/25 04:41:34;;;;;;;1.10;1.05;;;17.40;78.50;;;;;;4991060;28;95785;-53
2021/04/25 04:44:06;;;;;;;1.07;0.87;;;17.40;78.50;;;;;;4994995;28;99412;-52
2021/04/25 04:46:36;;;;;;;1.05;0.70;;;17.40;78.50;;;;;;4980747;28;96102;-53
2021/04/25 04:49:07;;;;;;;;;;;17.50;78.60;;;;;;5007319;28;97026;-50
2021/04/25 04:51:37;;;;;;;2.03;0.98;;;17.50;78.60;;;;;;4993453;28;95766;-51
2021/04/25 04:54:09;;;;;;;1.05;1.05;;;17.50;78.40;;;;;;4993924;28;95173;-51
2021/04/25 04:56:41;;;;;;;1.58;1.10;;;17.50;78.50;;;;;;4996701;28;95717;-50
2021/04/25 04:59:12;;;;;;;1.27;0.80;;;17.50;78.40;;;;;;4989859;28;95925;-50
2021/04/25 05:01:42;;;;;;;1.08;0.98;;;17.50;78.40;;;;;;4986989;28;95968;-53
2021/04/25 05:04:15;;;;;;;;;;;17.50;78.40;;;;;;4971889;28;96187;-52
2021/04/25 05:06:47;;;;;;;1.13;0.77;;;17.50;78.20;;;;;;5005182;27;95767;-50
2021/04/25 05:09:16;;;;;;;;;;;17.50;78.40;;;;;;4990337;28;95890;-52
2021/04/25 05:11:46;;;;;;;1.10;0.82;;;17.50;78.50;;;;;;5004062;27;97057;-51
2021/04/25 05:14:16;;;;;;;1.25;1.02;;;17.50;78.60;;;;;;4972934;28;95730;-52
2021/04/25 05:16:47;;;;;;;1.17;0.80;;;17.60;78.40;;;;;;4987761;28;95364;-49
2021/04/25 05:19:17;;;;;;;0.98;0.88;;;17.60;78.50;;;;;;4988241;28;96528;-51
2021/04/25 05:21:48;;;;;;;0.82;0.75;;;17.60;78.40;;;;;;4985732;28;95908;-52
2021/04/25 05:24:19;;;;;;;2.58;0.82;;;17.50;78.30;;;;;;4989218;28;95652;-51
2021/04/25 05:26:51;;;;;;;6.57;1.30;;;17.50;78.40;;;;;;4971228;28;95688;-51
2021/04/25 05:29:21;;;;;;;2.60;1.38;;;17.60;78.10;;;;;;4990114;28;95902;-52
2021/04/25 05:31:51;;;;;;;1.05;0.88;;;17.50;78.10;;;;;;5010842;27;96123;-50
2021/04/25 05:34:21;;;;;;;0.70;0.70;;;17.50;77.90;;;;;;4991273;28;95909;-50
2021/04/25 05:36:50;;;;;;;0.88;0.70;;;17.50;77.90;;;;;;4986444;28;95415;-50
2021/04/25 05:39:22;;;;;;;2.00;1.03;;;17.60;77.90;;;;;;4988704;28;95964;-50
2021/04/25 05:41:52;;;;;;;0.95;0.90;;;17.60;78.00;;;;;;4989216;28;95855;-52
2021/04/25 05:44:22;;;;;;;0.85;0.82;;;17.60;78.30;;;;;;4989501;28;95736;-53
2021/04/25 05:46:54;;;;;;;5.63;1.38;;;17.60;78.40;;;;;;4988168;28;95949;-53
2021/04/25 05:49:25;;;;;;;2.03;0.80;;;17.60;78.20;;;;;;4976463;28;95814;-50
2021/04/25 05:51:56;;;;;;;1.05;1.02;;;17.60;78.20;;;;;;4993161;28;95464;-50
2021/04/25 05:54:27;;;;;;;1.08;0.65;;;17.60;78.30;;;;;;4993632;28;95629;-50
2021/04/25 05:56:57;;;;;;;1.00;0.90;;;17.60;78.90;;;;;;4995522;28;95789;-51
2021/04/25 05:59:27;;;;;;;0.82;0.57;;;17.60;78.20;;;;;;4999410;28;96057;-52
2021/04/25 06:01:57;;;;;;;1.70;0.80;;;17.60;78.10;;;;;;4983230;28;95371;-50
2021/04/25 06:04:27;;;;;;;0.77;0.60;;;17.60;78.10;;;;;;4988706;28;95814;-51
2021/04/25 06:06:57;;;;;;;1.08;0.82;;;17.50;78.30;;;;;;4989303;28;95889;-49
2021/04/25 06:09:28;;;;;;;1.00;1.00;;;17.60;78.40;;;;;;4986632;28;97896;-51
2021/04/25 06:11:59;;;;;;;1.10;0.75;;;17.60;78.40;;;;;;4988065;28;95829;-51
2021/04/25 06:14:29;;;;;;;0.85;0.80;;;17.60;78.30;;;;;;5014646;27;97478;-53
2021/04/25 06:17:01;;;;;;;2.50;0.88;;;17.50;78.30;;;;;;4986690;27;96188;-49
2021/04/25 06:19:32;;;;;;;3.83;1.27;;;17.50;78.30;;;;;;4986933;28;95992;-50
2021/04/25 06:22:09;;;;;;;0.60;0.60;;;17.60;78.30;;;;;;4993946;28;95762;-51
2021/04/25 06:24:41;;;;;;;1.08;0.98;;;17.50;78.30;;;;;;5005028;27;96254;-52
2021/04/25 06:27:11;;;;;;;0.77;0.73;;;17.50;78.30;;;;;;4993717;28;95835;-49
2021/04/25 06:29:42;;;;;;;1.05;0.70;;;17.60;78.20;;;;;;5001729;27;96404;-49
2021/04/25 06:32:12;;;;;;;0.70;0.68;;;17.50;78.10;;;;;;4988530;28;96152;-49
2021/04/25 06:34:43;;;;;;;3.80;1.83;;;17.50;78.10;;;;;;4969763;28;95876;-52
2021/04/25 06:37:13;;;;;;;0.95;0.70;;;17.50;78.10;;;;;;5002559;28;96124;-49
2021/04/25 06:39:42;;;;;;;0.60;0.60;;;17.50;78.10;;;;;;4992720;28;95913;-50
2021/04/25 06:42:12;;;;;;;0.68;0.60;;;17.50;78.00;;;;;;5000385;28;95907;-52
2021/04/25 06:44:43;;;;;;;1.85;0.80;;;17.50;78.00;;;;;;4986103;28;95762;-50
2021/04/25 06:47:14;;;;;;;0.90;0.88;;;17.50;77.90;;;;;;4989845;27;98422;-51
2021/04/25 06:49:44;;;;;;;0.88;0.68;;;17.50;77.90;;;;;;4989348;28;96469;-53
2021/04/25 06:52:13;;;;;;;1.95;0.80;;;17.50;78.00;;;;;;4988474;28;95422;-51
2021/04/25 06:54:43;;;;;;;2.58;0.80;;;17.50;78.00;;;;;;4992816;28;95542;-52
2021/04/25 06:57:14;;;;;;;4.30;1.15;;;17.50;78.20;;;;;;4989326;28;95261;-52
2021/04/25 06:59:44;;;;;;;4.57;1.13;;;17.50;78.10;;;;;;4986460;28;95944;-51
2021/04/25 07:02:15;;;;;;;5.70;1.27;;;17.50;78.00;;;;;;4997092;28;95803;-51
2021/04/25 07:04:45;;;;;;;5.93;1.00;;;17.50;78.00;;;;;;5006581;28;100702;-51
2021/04/25 07:07:15;;;;;;;3.75;2.10;;;17.50;77.90;;;;;;5004441;28;95646;-50
2021/04/25 07:09:46;;;;;;;9.95;1.02;;;17.50;77.90;;;;;;5007002;28;96091;-50
2021/04/25 07:12:17;;;;;;;1.15;0.93;;;17.50;77.90;;;;;;4991783;28;96062;-52
2021/04/25 07:14:48;;;;;;;2.53;1.00;;;17.50;77.80;;;;;;4999149;28;95672;-53
2021/04/25 07:17:17;;;;;;;4.28;1.20;;;17.50;77.70;;;;;;4994022;27;97102;-51
2021/04/25 07:19:47;;;;;;;2.38;1.00;;;17.50;77.80;;;;;;4990801;28;97169;-54
2021/04/25 07:22:19;;;;;;;2.85;1.02;;;17.50;78.00;;;;;;4995396;28;95380;-50
2021/04/25 07:24:50;;;;;;;4.28;2.03;;;17.50;77.90;;;;;;4991348;28;95728;-54
2021/04/25 07:27:21;;;;;;;1.08;0.82;;;17.40;77.70;;;;;;4990940;28;95409;-54
2021/04/25 07:29:52;;;;;;;1.42;0.90;;;17.50;77.80;;;;;;4973557;28;96329;-51
2021/04/25 07:32:23;;;;;;;4.78;1.65;;;17.50;77.80;;;;;;4987742;28;95650;-53
2021/04/25 07:34:53;;;;;;;3.35;1.58;;;17.50;77.70;;;;;;4990728;28;95796;-50
2021/04/25 07:37:25;;;;;;;3.67;1.00;;;17.40;77.60;;;;;;4990496;28;98534;-54
2021/04/25 07:39:54;;;;;;;3.90;1.23;;;17.40;77.60;;;;;;4991530;28;95929;-53
2021/04/25 07:42:24;;;;;;;1.42;0.98;;;17.40;77.60;;;;;;4973088;28;98481;-53
2021/04/25 07:44:55;;;;;;;1.75;1.20;;;17.40;77.60;;;;;;4973557;28;95698;-53
2021/04/25 07:47:25;;;;;;;3.95;0.90;;;17.40;77.50;;;;;;4993406;28;96310;-51
2021/04/25 07:49:55;;;;;;;6.43;1.55;;;17.40;77.50;;;;;;5000330;28;95889;-50
2021/04/25 07:52:24;;;;;;;3.38;1.98;;;17.40;77.70;;;;;;4996313;28;95801;-52
2021/04/25 07:54:55;;;;;;;1.40;0.88;;;17.40;77.70;;;;;;5003440;28;95228;-51
2021/04/25 07:57:25;;;;;;;1.58;0.93;;;17.50;77.70;;;;;;4997106;28;95182;-52
2021/04/25 07:59:54;;;;;;;1.15;1.05;;;17.50;77.70;;;;;;4972721;28;96247;-53
2021/04/25 08:02:24;;;;;;;3.08;1.10;;;17.50;77.60;;;;;;4992305;28;100134;-51
2021/04/25 08:04:54;;;;;;;1.70;1.00;;;17.50;77.60;;;;;;5019600;28;95663;-52
2021/04/25 08:07:24;;;;;;;3.38;1.10;;;17.50;77.60;;;;;;5011474;27;95436;-51
2021/04/25 08:09:55;;;;;;;2.78;0.90;;;17.50;77.60;;;;;;4992078;28;95830;-50
2021/04/25 08:12:26;;;;;;;1.20;1.10;;;17.50;77.60;;;;;;5000538;28;96916;-51
2021/04/25 08:14:57;;;;;;;1.70;1.33;;;17.50;77.60;;;;;;5008829;28;95861;-51
2021/04/25 08:17:27;;;;;;;1.30;0.80;;;17.50;77.60;;;;;;4970382;28;95385;-54
2021/04/25 08:19:58;;;;;;;2.28;0.95;;;17.50;77.60;;;;;;5002351;28;95837;-51
2021/04/25 08:22:29;;;;;;;3.30;1.15;;;17.50;77.70;;;;;;4990460;28;95447;-52
2021/04/25 08:25:01;;;;;;;1.90;1.00;;;17.50;77.60;;;;;;4989935;28;95351;-53
2021/04/25 08:27:31;;;;;;;;;;;17.50;77.60;;;;;;4998838;28;96139;-55
2021/04/25 08:30:01;;;;;;;1.88;1.17;;;17.50;77.60;;;;;;4997539;28;95836;-52
2021/04/25 08:32:31;;;;;;;0.87;0.80;;;17.50;77.60;;;;;;4986972;28;95476;-54
2021/04/25 08:35:01;;;;;;;1.02;0.75;;;17.50;77.60;;;;;;4990859;28;96157;-53
2021/04/25 08:37:31;;;;;;;2.45;0.95;;;17.50;77.70;;;;;;5003519;28;96006;-52
2021/04/25 08:40:00;;;;;;;1.27;0.60;;;17.50;77.70;;;;;;4989864;28;96254;-52
2021/04/25 08:42:30;;;;;;;1.17;1.08;;;17.50;77.70;;;;;;4988873;28;96066;-54
2021/04/25 08:45:00;;;;;;;2.40;0.93;;;17.50;77.70;;;;;;4971329;28;95788;-53
2021/04/25 08:47:38;;;;;;;2.45;0.82;;;17.50;77.70;;;;;;4968360;28;95749;-53
2021/04/25 08:50:08;;;;;;;0.90;0.90;;;17.50;77.70;;;;;;4991296;28;95949;-50
2021/04/25 08:52:39;;;;;;;1.30;0.90;;;17.50;77.70;;;;;;4989574;28;96013;-51
2021/04/25 08:55:10;;;;;;;0.82;0.80;;;17.50;77.80;;;;;;5000773;28;95953;-54
2021/04/25 08:57:41;;;;;;;1.08;0.88;;;17.50;77.70;;;;;;4992832;28;95162;-53
2021/04/25 09:00:12;;;;;;;1.45;0.98;;;17.50;77.70;;;;;;4970469;28;96616;-51
2021/04/25 09:02:42;;;;;;;1.30;0.90;;;17.50;77.70;;;;;;4988956;28;96028;-50
2021/04/25 09:05:14;;;;;;;0.85;0.85;;;17.60;77.80;;;;;;4992972;28;95511;-55
2021/04/25 09:08:02;;;;;;;0.80;0.77;;;17.60;77.80;;;;;;4972011;28;95583;-51
2021/04/25 09:10:42;;;;;;;0.98;0.95;;;17.50;77.80;;;;;;4987932;28;95897;-50
2021/04/25 09:13:17;;;;;;;0.93;0.63;;;17.50;77.70;;;;;;4988531;28;95419;-50
2021/04/25 09:15:49;;;;;;;1.05;0.90;;;17.50;77.80;;;;;;4984411;28;95875;-51
2021/04/25 09:18:32;;;;;;;1.13;0.82;;;17.50;77.70;;;;;;5004423;28;96142;-50
2021/04/25 09:21:13;;;;;;;0.77;0.77;;;17.50;77.70;;;;;;4995882;28;98119;-50
2021/04/25 09:23:43;;;;;;;1.02;0.93;;;17.50;77.80;;;;;;4988250;28;95278;-51
2021/04/25 09:26:15;;;;;;;1.58;1.00;;;17.60;77.90;;;;;;4993167;28;95596;-51
2021/04/25 09:29:00;;;;;;;1.23;0.80;;;17.50;77.80;;;;;;4990354;28;95304;-53
2021/04/25 09:31:40;;;;;;;1.08;0.70;;;17.50;77.80;;;;;;4984561;28;96162;-53
2021/04/25 09:34:22;;;;;;;1.20;1.08;;;17.50;77.80;;;;;;4989545;28;95890;-52
2021/04/25 09:36:55;;;;;;;1.60;1.05;;;17.50;77.80;;;;;;4989143;28;95802;-53
2021/04/25 09:39:24;;;;;;;2.00;0.93;;;17.60;77.80;;;;;;4990671;28;95375;-56
2021/04/25 09:42:02;;;;;;;1.83;1.30;;;17.50;77.80;;;;;;4997327;28;95890;-51
2021/04/25 09:44:37;;;;;;;1.83;1.10;;;17.50;77.80;;;;;;4992848;28;95733;-53
2021/04/25 09:47:08;;;;;;;4.25;1.67;;;17.50;78.00;;;;;;4992221;28;96150;-53
2021/04/25 09:49:39;;;;;;;2.05;1.83;;;17.50;78.50;;;;;;4999010;28;95617;-54
2021/04/25 09:52:11;;;;;;;2.25;1.83;;;17.50;78.90;;;;;;4979176;28;96838;-53
2021/04/25 09:54:41;;;;;;;2.40;1.52;;;17.50;79.10;;;;;;4997663;28;95601;-55
2021/04/25 09:57:33;;;;;;;2.58;1.50;;;17.40;79.20;;;;;;4996071;28;96072;-51
2021/04/25 10:00:05;;;;;;;2.17;1.63;;;17.40;79.30;;;;;;4986522;28;95232;-57
2021/04/25 10:03:00;;;;;;;2.90;1.70;;;17.40;79.30;;;;;;4985249;28;101783;-52
2021/04/25 10:05:31;;;;;;;3.55;2.25;;;17.30;79.30;;;;;;4987560;28;95735;-52
2021/04/25 10:08:02;;;;;;;5.85;1.92;;;17.30;79.40;;;;;;4990112;28;95829;-53
2021/04/25 10:10:33;;;;;;;;;;;17.30;79.40;;;;;;4982222;28;96857;-56
2021/04/25 10:13:04;;;;;;;2.80;1.77;;;17.20;79.50;;;;;;4986668;28;96945;-52
2021/04/25 10:15:36;;;;;;;3.35;1.85;;;17.30;79.20;;;;;;4992290;28;96026;-57
2021/04/25 10:18:08;;;;;;;4.47;2.00;;;17.40;79.00;;;;;;5009895;27;96250;-54
2021/04/25 10:20:38;;;;;;;;;;;17.40;79.00;;;;;;4996078;28;96672;-55
2021/04/25 10:23:10;;;;;;;1.58;1.35;;;17.40;78.80;;;;;;4994226;28;95758;-55
2021/04/25 10:25:43;;;;;;;2.00;1.60;;;17.40;78.80;;;;;;4996735;28;96044;-51
2021/04/25 10:28:18;;;;;;;4.18;1.60;;;17.50;78.70;;;;;;4995641;28;95794;-53
2021/04/25 10:30:49;;;;;;;3.63;1.80;;;17.50;78.70;;;;;;5009473;27;95994;-54
2021/04/25 10:33:20;;;;;;;4.93;1.98;;;17.50;78.60;;;;;;5012460;27;95913;-51
2021/04/25 10:35:57;;;;;;;2.53;1.90;;;17.50;78.60;;;;;;5001835;28;96739;-53
2021/04/25 10:38:40;;;;;;;2.53;1.80;;;17.50;78.80;;;;;;4982943;28;95816;-50
2021/04/25 10:41:27;;;;;;;3.47;1.70;;;17.60;78.80;;;;;;5002890;28;95742;-54
2021/04/25 10:44:06;;;;;;;3.40;1.60;;;17.70;78.70;;;;;;5002950;28;95931;-54
2021/04/25 10:47:00;;;;;;;1.65;1.30;;;17.90;78.60;;;;;;5000848;28;95617;-49
2021/04/25 10:49:32;;;;;;;1.52;1.30;;;18.00;78.50;;;;;;4984357;28;96761;-55
2021/04/25 10:52:21;;;;;;;;;;;18.10;78.50;;;;;;5005641;28;97911;-55
2021/04/25 10:55:20;;;;;;;3.08;1.42;;;18.10;78.40;;;;;;4997493;28;95898;-56
2021/04/25 10:58:00;;;;;;;1.88;1.67;;;18.20;78.20;;;;;;5004435;28;96231;-53
2021/04/25 11:00:37;;;;;;;1.88;1.60;;;18.30;78.10;;;;;;4999069;28;95906;-56
2021/04/25 11:03:15;;;;;;;2.67;1.88;;;18.30;78.00;;;;;;5001436;28;96853;-55
2021/04/25 11:05:55;;;;;;;3.53;1.45;;;18.30;76.70;;;;;;4997370;28;96534;-51
2021/04/25 11:08:32;;;;;;;2.70;1.73;;;18.10;76.60;;;;;;4997930;28;95834;-54
2021/04/25 11:11:10;;;;;;;1.70;1.30;;;18.00;76.90;;;;;;4991759;28;97702;-56
2021/04/25 11:13:46;;;;;;;1.42;1.33;;;18.00;77.20;;;;;;4998477;28;95690;-53
2021/04/25 11:16:17;;;;;;;1.52;1.23;;;17.90;77.40;;;;;;4993203;28;95944;-51
2021/04/25 11:19:10;;;;;;;4.07;1.50;;;17.90;77.50;;;;;;5000149;28;96086;-53
2021/04/25 11:21:53;;;;;;;3.67;1.88;;;17.80;77.50;;;;;;4999772;28;97993;-52
2021/04/25 11:24:32;;;;;;;3.17;1.27;;;17.80;77.60;;;;;;4997954;28;95723;-52
2021/04/25 11:27:04;;;;;;;1.63;1.35;;;17.80;77.60;;;;;;4982500;28;96700;-51
2021/04/25 11:29:39;;;;;;;2.08;1.40;;;17.70;77.70;;;;;;4993095;28;96427;-53
2021/04/25 11:32:22;;;;;;;2.35;1.42;;;17.70;77.70;;;;;;4996356;28;95405;-51
2021/04/25 11:35:01;;;;;;;1.25;1.10;;;17.70;77.70;;;;;;4998193;28;96012;-52
2021/04/25 11:37:34;;;;;;;1.35;1.10;;;17.60;77.70;;;;;;4984902;28;95881;-52
2021/04/25 11:40:07;;;;;;;2.22;1.52;;;17.60;77.60;;;;;;4995488;28;96351;-54
2021/04/25 11:42:50;;;;;;;1.13;0.93;;;17.60;77.70;;;;;;4996524;28;95756;-52
2021/04/25 11:45:29;;;;;;;1.27;1.17;;;17.50;77.70;;;;;;5003320;27;96955;-51
2021/04/25 11:48:05;;;;;;;2.03;1.20;;;17.60;77.70;;;;;;4985067;28;102539;-52
2021/04/25 11:50:37;;;;;;;1.85;1.40;;;17.50;77.70;;;;;;4999076;28;96886;-51
2021/04/25 11:53:06;;;;;;;2.65;1.40;;;17.50;77.70;;;;;;5001787;28;95731;-52
2021/04/25 11:55:36;;;;;;;2.47;1.38;;;17.50;77.70;;;;;;4998504;28;96149;-54
2021/04/25 11:58:05;;;;;;;2.13;1.65;;;17.50;77.70;;;;;;5003025;28;96612;-53
2021/04/25 12:00:38;;;;;;;1.77;1.20;;;17.50;77.70;;;;;;4975833;28;95976;-52
2021/04/25 12:03:09;;;;;;;3.55;1.60;;;17.40;77.60;;;;;;4995797;28;95959;-52
2021/04/25 12:05:42;;;;;;;3.65;1.88;;;17.40;77.60;;;;;;5002809;28;95791;-52
2021/04/25 12:08:14;;;;;;;3.75;1.73;;;17.40;77.60;;;;;;5000613;28;95898;-54
2021/04/25 12:10:51;;;;;;;7.32;2.45;;;17.40;77.60;;;;;;4997143;28;96565;-53
2021/04/25 12:13:24;;;;;;;9.10;3.35;;;17.30;77.60;;;;;;4998227;28;95895;-52
2021/04/25 12:15:56;;;;;;;5.53;2.22;;;17.30;77.60;;;;;;4999566;28;95869;-53
2021/04/25 12:18:32;;;;;;;7.07;2.85;;;17.30;77.60;;;;;;4992093;28;96599;-53
2021/04/25 12:21:06;;;;;;;8.05;3.08;;;17.30;77.50;;;;;;5015795;28;97418;-52
2021/04/25 12:23:42;;;;;;;7.25;2.83;;;17.30;77.60;;;;;;4999359;28;96134;-52
2021/04/25 12:26:16;;;;;;;7.10;3.15;;;17.20;77.70;;;;;;5002772;28;95676;-53
2021/04/25 12:28:53;;;;;;;6.03;3.40;;;17.20;77.60;;;;;;4994697;28;96779;-53
2021/04/25 12:31:40;;;;;;;8.52;3.47;;;17.30;77.60;;;;;;4999080;28;95896;-52
2021/04/25 12:34:17;;;;;;;10.90;4.22;;;17.20;77.50;;;;;;4992440;28;95856;-52
2021/04/25 12:36:53;;;;;;;7.60;4.00;;;17.30;77.50;;;;;;5000411;28;96024;-54
2021/04/25 12:39:23;;;;;;;9.15;3.78;;;17.20;77.50;;;;;;5000172;28;96966;-51
2021/04/25 12:41:53;;;;;;;16.75;5.05;;;17.20;77.60;;;;;;5002317;28;95910;-54
2021/04/25 12:44:36;;;;;;;12.45;4.60;;;17.20;77.60;;;;;;5000906;28;95863;-51
2021/04/25 12:47:09;;;;;;;10.85;5.45;;;17.20;77.60;;;;;;4996974;28;95914;-51
2021/04/25 12:49:52;;;;;;;9.27;5.25;;;17.20;77.60;;;;;;4997120;28;95915;-53
2021/04/25 12:52:35;;;;;;;7.93;5.60;;;17.20;77.50;;;;;;4996436;28;95719;-56
2021/04/25 12:55:05;;;;;;;11.02;6.25;;;17.20;77.60;;;;;;4999080;28;95388;-51
2021/04/25 12:57:35;;;;;;;13.30;6.00;;;17.20;77.60;;;;;;5002138;28;96469;-54
2021/04/25 13:00:29;;;;;;;11.63;7.00;;;17.10;77.50;;;;;;4981964;28;97448;-56
2021/04/25 13:02:58;;;;;;;13.05;6.03;;;17.10;77.90;;;;;;4996178;28;102038;-54
2021/04/25 13:05:31;;;;;;;11.93;5.47;;;17.20;77.90;;;;;;5005601;28;95763;-56
2021/04/25 13:08:00;;;;;;;11.02;5.55;;;17.40;77.70;;;;;;5002200;28;98076;-54
2021/04/25 13:10:33;;;;;;;10.77;5.32;;;17.60;77.30;;;;;;5003238;28;96161;-56
2021/04/25 13:13:13;;;;;;;10.27;5.55;;;17.90;76.90;;;;;;5008731;28;95718;-54
2021/04/25 13:15:48;;;;;;;14.37;6.80;;;18.00;76.40;;;;;;4999854;28;96422;-52
2021/04/25 13:18:19;;;;;;;14.25;6.95;;;18.20;76.20;;;;;;4988566;28;95949;-52